createdAt,value
2018-06-29T00:00:13.148Z,99303.03
2018-06-29T00:03:16.356Z,99300.38
2018-06-29T00:06:19.554Z,99296.11
2018-06-29T00:09:23.362Z,99301.78
2018-06-29T00:12:26.548Z,99299.13
2018-06-29T00:15:29.643Z,99293.53
2018-06-29T00:18:32.918Z,99290.14
2018-06-29T00:21:36.139Z,99294.34
2018-06-29T00:24:42.005Z,99292.42
2018-06-29T00:27:45.193Z,99291.83
2018-06-29T00:30:50.478Z,99293.89
2018-06-29T00:33:53.882Z,99295.44
2018-06-29T00:36:57.818Z,99296.91
2018-06-29T00:40:03.290Z,99295.58
2018-06-29T00:43:06.398Z,99291.67
2018-06-29T00:46:09.480Z,99296.55
2018-06-29T00:49:12.576Z,99293.89
2018-06-29T00:52:15.725Z,99289.47
2018-06-29T00:55:18.863Z,99292.20
2018-06-29T00:58:21.847Z,99290.58
2018-06-29T01:01:25.047Z,99295.74
2018-06-29T01:04:31.746Z,99287.41
2018-06-29T01:07:34.993Z,99289.41
2018-06-29T01:10:38.046Z,99293.75
2018-06-29T01:13:41.185Z,99296.85
2018-06-29T01:16:44.235Z,99297.52
2018-06-29T01:19:47.409Z,99297.58
2018-06-29T01:22:51.626Z,99296.33
2018-06-29T01:25:55.718Z,99304.94
2018-06-29T01:28:58.725Z,99305.23
2018-06-29T01:32:01.920Z,99306.32
2018-06-29T01:35:05.157Z,99303.86
2018-06-29T01:38:08.236Z,99304.34
2018-06-29T01:41:11.612Z,99303.42
2018-06-29T01:44:15.632Z,99301.17
2018-06-29T01:47:18.869Z,99303.10
2018-06-29T01:50:22.220Z,99311.01
2018-06-29T01:53:33.155Z,99308.58
2018-06-29T01:56:36.619Z,99298.78
2018-06-29T01:59:39.909Z,99300.00
2018-06-29T02:02:43.098Z,99298.64
2018-06-29T02:05:46.213Z,99302.86
2018-06-29T02:08:54.695Z,99306.67
2018-06-29T02:11:58.882Z,99310.77
2018-06-29T02:15:02.008Z,99306.63
2018-06-29T02:18:13.277Z,99300.91
2018-06-29T02:21:17.490Z,99301.42
2018-06-29T02:24:20.809Z,99303.55
2018-06-29T02:27:24.732Z,99305.28
2018-06-29T02:30:28.066Z,99295.52
2018-06-29T02:33:31.301Z,99293.48
2018-06-29T02:36:34.599Z,99292.98
2018-06-29T02:39:37.867Z,99284.66
2018-06-29T02:42:41.272Z,99287.30
2018-06-29T02:45:44.474Z,99284.34
2018-06-29T02:48:47.785Z,99282.52
2018-06-29T02:51:51.026Z,99277.33
2018-06-29T02:54:54.214Z,99280.48
2018-06-29T02:57:57.510Z,99283.72
2018-06-29T03:01:00.689Z,99282.79
2018-06-29T03:04:04.046Z,99286.13
2018-06-29T03:07:07.466Z,99283.20
2018-06-29T03:10:19.086Z,99286.56
2018-06-29T03:13:23.447Z,99280.58
2018-06-29T03:16:26.630Z,99270.63
2018-06-29T03:19:30.975Z,99270.63
2018-06-29T03:22:34.248Z,99266.97
2018-06-29T03:25:37.353Z,99269.52
2018-06-29T03:28:40.542Z,99270.97
2018-06-29T03:31:44.879Z,99264.41
2018-06-29T03:34:48.081Z,99269.86
2018-06-29T03:37:51.323Z,99270.88
2018-06-29T03:40:54.453Z,99267.84
2018-06-29T03:43:57.690Z,99268.45
2018-06-29T03:47:01.018Z,99266.31
2018-06-29T03:50:04.493Z,99259.48
2018-06-29T03:53:07.895Z,99268.05
2018-06-29T03:56:11.042Z,99266.64
2018-06-29T03:59:14.276Z,99275.17
2018-06-29T04:02:17.414Z,99271.60
2018-06-29T04:05:20.588Z,99261.47
2018-06-29T04:08:23.646Z,99263.88
2018-06-29T04:11:26.738Z,99255.29
2018-06-29T04:14:29.945Z,99259.02
2018-06-29T04:17:33.088Z,99264.78
2018-06-29T04:20:36.336Z,99258.41
2018-06-29T04:23:39.569Z,99254.77
2018-06-29T04:26:42.747Z,99261.44
2018-06-29T04:29:45.852Z,99270.89
2018-06-29T04:32:49.043Z,99266.19
2018-06-29T04:35:52.100Z,99267.77
2018-06-29T04:38:55.295Z,99264.08
2018-06-29T04:41:58.393Z,99272.80
2018-06-29T04:45:01.567Z,99281.80
2018-06-29T04:48:04.814Z,99278.94
2018-06-29T04:51:07.901Z,99283.03
2018-06-29T04:54:11.196Z,99288.48
2018-06-29T04:57:14.423Z,99294.77
2018-06-29T05:00:17.597Z,99286.73
2018-06-29T05:03:20.721Z,99285.50
2018-06-29T05:06:23.794Z,99295.03
2018-06-29T05:09:27.092Z,99290.88
2018-06-29T05:12:31.427Z,99292.09
2018-06-29T05:15:34.634Z,99290.72
2018-06-29T05:18:37.810Z,99284.91
2018-06-29T05:21:40.931Z,99285.47
2018-06-29T05:24:44.018Z,99282.30
2018-06-29T05:27:47.202Z,99277.91
2018-06-29T05:30:50.722Z,99269.05
2018-06-29T05:33:54.004Z,99269.24
2018-06-29T05:36:57.164Z,99257.89
2018-06-29T05:40:00.450Z,99249.85
2018-06-29T05:43:03.727Z,99253.14
2018-06-29T05:46:06.904Z,99239.42
2018-06-29T05:49:10.113Z,99236.93
2018-06-29T05:52:13.321Z,99242.56
2018-06-29T05:55:18.492Z,99243.11
2018-06-29T05:58:21.680Z,99242.85
2018-06-29T06:01:25.094Z,99241.05
2018-06-29T06:04:29.606Z,99255.13
2018-06-29T06:07:32.776Z,99255.93
2018-06-29T06:10:39.953Z,99258.99
2018-06-29T06:13:51.237Z,99248.50
2018-06-29T06:16:58.213Z,99242.28
2018-06-29T06:20:11.571Z,99247.37
2018-06-29T06:23:19.300Z,99245.22
2018-06-29T06:26:22.563Z,99247.02
2018-06-29T06:29:26.986Z,99237.03
2018-06-29T06:32:31.352Z,99237.50
2018-06-29T06:35:34.624Z,99237.50
2018-06-29T06:38:37.803Z,99231.90
2018-06-29T06:41:41.834Z,99238.18
2018-06-29T06:44:45.232Z,99244.78
2018-06-29T06:47:51.557Z,99244.84
2018-06-29T06:50:54.902Z,99249.20
2018-06-29T06:53:58.139Z,99240.48
2018-06-29T06:57:01.483Z,99240.09
2018-06-29T07:00:05.654Z,99236.69
2018-06-29T07:03:08.840Z,99229.95
2018-06-29T07:06:12.019Z,99235.98
2018-06-29T07:09:16.085Z,99244.64
2018-06-29T07:12:19.483Z,99249.38
2018-06-29T07:15:22.737Z,99257.73
2018-06-29T07:18:26.941Z,99250.38
2018-06-29T07:21:32.590Z,99251.48
2018-06-29T07:24:35.768Z,99249.05
2018-06-29T07:27:38.864Z,99249.62
2018-06-29T07:30:42.033Z,99250.12
2018-06-29T07:33:45.177Z,99237.38
2018-06-29T07:36:48.277Z,99239.00
2018-06-29T07:39:51.466Z,99231.09
2018-06-29T07:42:54.505Z,99231.69
2018-06-29T07:45:57.663Z,99235.44
2018-06-29T07:49:00.857Z,99234.90
2018-06-29T07:52:04.064Z,99225.09
2018-06-29T07:55:07.398Z,99234.09
2018-06-29T07:58:10.607Z,99231.23
2018-06-29T08:01:13.705Z,99234.76
2018-06-29T08:04:17.023Z,99239.97
2018-06-29T08:07:20.362Z,99245.14
2018-06-29T08:10:23.567Z,99225.34
2018-06-29T08:13:27.353Z,99235.91
2018-06-29T08:16:30.478Z,99240.02
2018-06-29T08:19:33.586Z,99232.43
2018-06-29T08:22:36.808Z,99231.52
2018-06-29T08:25:40.020Z,99235.16
2018-06-29T08:28:43.145Z,99232.70
2018-06-29T08:31:49.333Z,99233.28
2018-06-29T08:34:52.462Z,99225.52
2018-06-29T08:37:55.664Z,99227.11
2018-06-29T08:40:58.812Z,99227.84
2018-06-29T08:44:02.058Z,99226.55
2018-06-29T08:47:05.242Z,99222.53
2018-06-29T08:50:08.513Z,99229.27
2018-06-29T08:53:11.753Z,99218.52
2018-06-29T08:56:14.780Z,99218.79
2018-06-29T08:59:18.532Z,99223.33
2018-06-29T09:02:21.696Z,99227.35
2018-06-29T09:05:24.851Z,99221.97
2018-06-29T09:08:27.925Z,99223.30
2018-06-29T09:11:31.163Z,99220.91
2018-06-29T09:14:34.215Z,99214.20
2018-06-29T09:17:37.371Z,99216.65
2018-06-29T09:20:53.087Z,99217.45
2018-06-29T09:23:56.488Z,99207.74
2018-06-29T09:26:59.493Z,99206.98
2018-06-29T09:30:02.684Z,99212.36
2018-06-29T09:33:06.799Z,99212.61
2018-06-29T09:36:11.017Z,99209.41
2018-06-29T09:39:14.035Z,99213.67
2018-06-29T09:42:17.336Z,99207.50
2018-06-29T09:45:21.621Z,99199.48
2018-06-29T09:48:24.691Z,99202.58
2018-06-29T09:51:31.657Z,99180.61
2018-06-29T09:54:34.873Z,99188.79
2018-06-29T09:57:38.195Z,99190.59
2018-06-29T10:00:41.366Z,99186.39
2018-06-29T10:03:44.752Z,99181.55
2018-06-29T10:06:47.908Z,99176.99
2018-06-29T10:09:51.055Z,99182.27
2018-06-29T10:12:54.111Z,99180.62
2018-06-29T10:15:57.191Z,99173.78
2018-06-29T10:19:01.031Z,99170.60
2018-06-29T10:22:04.317Z,99174.22
2018-06-29T10:25:07.503Z,99183.25
2018-06-29T10:28:10.592Z,99180.50
2018-06-29T10:31:13.617Z,99181.30
2018-06-29T10:34:16.637Z,99173.72
2018-06-29T10:37:19.706Z,99166.81
2018-06-29T10:40:22.825Z,99175.74
2018-06-29T10:43:25.997Z,99172.61
2018-06-29T10:46:29.010Z,99168.56
2018-06-29T10:49:32.202Z,99170.28
2018-06-29T10:52:36.299Z,99162.05
2018-06-29T10:55:39.468Z,99158.34
2018-06-29T10:58:42.652Z,99159.34
2018-06-29T11:01:45.897Z,99149.64
2018-06-29T11:04:49.115Z,99153.17
2018-06-29T11:07:52.316Z,99143.12
2018-06-29T11:10:56.577Z,99154.15
2018-06-29T11:13:59.739Z,99146.75
2018-06-29T11:17:02.846Z,99139.58
2018-06-29T11:20:05.944Z,99131.22
2018-06-29T11:23:09.293Z,99132.87
2018-06-29T11:26:12.349Z,99115.49
2018-06-29T11:29:15.658Z,99124.73
2018-06-29T11:32:18.775Z,99130.15
2018-06-29T11:35:22.171Z,99122.22
2018-06-29T11:38:25.358Z,99128.73
2018-06-29T11:41:28.692Z,99117.72
2018-06-29T11:44:37.568Z,99120.78
2018-06-29T11:47:40.819Z,99115.59
2018-06-29T11:50:45.133Z,99110.20
2018-06-29T11:53:49.105Z,99109.68
2018-06-29T11:56:52.312Z,99100.66
2018-06-29T11:59:55.555Z,99099.97
2018-06-29T12:02:58.714Z,99091.55
2018-06-29T12:06:01.959Z,99080.16
2018-06-29T12:09:08.312Z,99088.14
2018-06-29T12:12:12.495Z,99077.47
2018-06-29T12:15:15.794Z,99085.40
2018-06-29T12:18:19.128Z,99078.56
2018-06-29T12:21:26.093Z,99079.09
2018-06-29T12:24:30.828Z,99077.55
2018-06-29T12:27:34.014Z,99075.56
2018-06-29T12:30:37.155Z,99071.48
2018-06-29T12:33:40.248Z,99063.30
2018-06-29T12:36:43.647Z,99066.86
2018-06-29T12:39:47.022Z,99070.70
2018-06-29T12:42:50.175Z,99057.44
2018-06-29T12:45:53.516Z,99063.13
2018-06-29T12:48:56.683Z,99051.80
2018-06-29T12:51:59.982Z,99053.33
2018-06-29T12:55:03.173Z,99052.16
2018-06-29T12:58:06.383Z,99045.26
2018-06-29T13:01:09.809Z,99039.84
2018-06-29T13:04:12.884Z,99030.45
2018-06-29T13:07:16.222Z,99022.86
2018-06-29T13:10:19.448Z,99028.62
2018-06-29T13:13:22.660Z,99033.20
2018-06-29T13:16:25.727Z,99033.00
2018-06-29T13:19:28.856Z,99022.50
2018-06-29T13:22:32.125Z,99008.83
2018-06-29T13:25:35.241Z,99009.92
2018-06-29T13:28:38.426Z,99003.30
2018-06-29T13:31:46.872Z,99005.14
2018-06-29T13:35:02.685Z,98993.61
2018-06-29T13:38:06.130Z,98994.47
2018-06-29T13:41:22.507Z,98993.58
2018-06-29T13:44:25.733Z,98995.67
2018-06-29T13:47:28.907Z,98987.05
2018-06-29T13:50:32.952Z,98985.38
2018-06-29T13:53:36.117Z,98982.34
2018-06-29T13:56:39.313Z,98981.95
2018-06-29T13:59:42.429Z,98982.83
2018-06-29T14:02:46.650Z,98976.45
2018-06-29T14:05:49.753Z,98977.69
2018-06-29T14:08:53.323Z,98978.53
2018-06-29T14:11:58.648Z,98977.03
2018-06-29T14:15:02.430Z,98972.78
2018-06-29T14:18:05.950Z,98960.69
2018-06-29T14:21:09.116Z,98957.98
2018-06-29T14:24:12.222Z,98953.69
2018-06-29T14:27:15.395Z,98954.09
2018-06-29T14:30:18.632Z,98947.77
2018-06-29T14:33:21.964Z,98959.94
2018-06-29T14:36:26.054Z,98951.39
2018-06-29T14:39:29.194Z,98947.75
2018-06-29T14:42:32.423Z,98947.11
2018-06-29T14:45:35.538Z,98940.90
2018-06-29T14:48:38.770Z,98936.80
2018-06-29T14:51:42.430Z,98922.72
2018-06-29T14:54:45.834Z,98916.47
2018-06-29T14:57:48.855Z,98919.52
2018-06-29T15:00:52.228Z,98915.16
2018-06-29T15:03:55.406Z,98908.78
2018-06-29T15:06:58.607Z,98912.30
2018-06-29T15:10:01.782Z,98908.05
2018-06-29T15:13:05.733Z,98911.97
2018-06-29T15:16:08.899Z,98899.26
2018-06-29T15:19:12.394Z,98900.18
2018-06-29T15:22:15.667Z,98896.73
2018-06-29T15:25:18.839Z,98900.09
2018-06-29T15:28:22.198Z,98892.09
2018-06-29T15:31:27.260Z,98885.41
2018-06-29T15:34:30.744Z,98887.05
2018-06-29T15:37:34.270Z,98881.01
2018-06-29T15:40:37.646Z,98876.49
2018-06-29T15:43:44.514Z,98879.54
2018-06-29T15:46:47.815Z,98876.95
2018-06-29T15:49:50.911Z,98885.75
2018-06-29T15:52:56.074Z,98878.72
2018-06-29T15:56:01.334Z,98879.21
2018-06-29T15:59:05.410Z,98872.49
2018-06-29T16:02:08.574Z,98868.92
2018-06-29T16:05:12.014Z,98867.62
2018-06-29T16:08:15.381Z,98868.71
2018-06-29T16:11:27.479Z,98864.61
2018-06-29T16:14:35.237Z,98861.74
2018-06-29T16:17:39.459Z,98856.52
2018-06-29T16:20:42.744Z,98863.59
2018-06-29T16:23:47.172Z,98858.40
2018-06-29T16:26:53.252Z,98857.48
2018-06-29T16:29:56.947Z,98857.09
2018-06-29T16:33:00.156Z,98860.18
2018-06-29T16:36:03.265Z,98854.23
2018-06-29T16:39:10.551Z,98855.47
2018-06-29T16:42:36.683Z,98859.05
2018-06-29T16:45:40.252Z,98853.48
2018-06-29T16:48:44.982Z,98851.17
2018-06-29T16:51:48.657Z,98862.31
2018-06-29T16:54:51.870Z,98841.54
2018-06-29T16:57:56.757Z,98850.75
2018-06-29T17:01:08.779Z,98853.66
2018-06-29T17:04:13.189Z,98845.38
2018-06-29T17:07:16.718Z,98845.19
2018-06-29T17:10:28.565Z,98845.78
2018-06-29T17:13:35.396Z,98847.87
2018-06-29T17:16:38.767Z,98840.20
2018-06-29T17:19:43.447Z,98843.08
2018-06-29T17:22:47.200Z,98851.38
2018-06-29T17:25:50.653Z,98844.50
2018-06-29T17:28:54.180Z,98847.09
2018-06-29T17:31:57.909Z,98848.96
2018-06-29T17:35:18.210Z,98847.89
2018-06-29T17:38:21.584Z,98840.00
2018-06-29T17:41:30.324Z,98844.13
2018-06-29T17:44:34.697Z,98841.11
2018-06-29T17:47:38.132Z,98842.86
2018-06-29T17:50:41.301Z,98840.05
2018-06-29T17:53:44.519Z,98839.19
2018-06-29T17:56:47.640Z,98838.62
2018-06-29T17:59:52.033Z,98841.77
2018-06-29T18:02:58.407Z,98841.73
2018-06-29T18:06:01.555Z,98843.66
2018-06-29T18:09:07.894Z,98839.88
2018-06-29T18:12:11.286Z,98844.03
2018-06-29T18:15:14.449Z,98841.67
2018-06-29T18:18:17.558Z,98841.14
2018-06-29T18:21:22.249Z,98841.38
2018-06-29T18:24:25.396Z,98840.52
2018-06-29T18:27:30.632Z,98840.42
2018-06-29T18:30:34.751Z,98836.16
2018-06-29T18:33:38.940Z,98848.05
2018-06-29T18:36:44.163Z,98848.97
2018-06-29T18:39:47.386Z,98835.30
2018-06-29T18:42:50.586Z,98840.69
2018-06-29T18:45:53.904Z,98840.92
2018-06-29T18:48:57.027Z,98841.78
2018-06-29T18:52:01.368Z,98847.20
2018-06-29T18:55:04.534Z,98851.80
2018-06-29T18:58:07.714Z,98852.73
2018-06-29T19:01:21.260Z,98855.06
2018-06-29T19:04:24.374Z,98863.24
2018-06-29T19:07:27.650Z,98866.91
2018-06-29T19:10:31.172Z,98866.91
2018-06-29T19:13:34.381Z,98877.14
2018-06-29T19:16:37.552Z,98880.55
2018-06-29T19:19:40.881Z,98871.59
2018-06-29T19:22:46.259Z,98870.02
2018-06-29T19:25:50.052Z,98877.50
2018-06-29T19:28:54.369Z,98886.65
2018-06-29T19:31:58.585Z,98884.42
2018-06-29T19:35:01.798Z,98895.97
2018-06-29T19:38:05.017Z,98897.92
2018-06-29T19:41:08.375Z,98907.48
2018-06-29T19:44:12.876Z,98906.41
2018-06-29T19:47:16.587Z,98913.02
2018-06-29T19:50:20.112Z,98906.34
2018-06-29T19:53:23.272Z,98909.16
2018-06-29T19:56:26.466Z,98914.13
2018-06-29T19:59:29.963Z,98915.42
2018-06-29T20:02:33.480Z,98914.04
2018-06-29T20:05:36.698Z,98916.71
2018-06-29T20:08:39.810Z,98919.73
2018-06-29T20:11:43.025Z,98920.05
2018-06-29T20:14:46.363Z,98924.38
2018-06-29T20:17:50.179Z,98929.33
2018-06-29T20:20:53.717Z,98931.14
2018-06-29T20:23:56.979Z,98934.66
2018-06-29T20:27:00.095Z,98938.84
2018-06-29T20:30:03.972Z,98938.08
2018-06-29T20:33:07.303Z,98943.66
2018-06-29T20:36:10.414Z,98946.58
2018-06-29T20:39:13.621Z,98952.30
2018-06-29T20:42:16.921Z,98952.66
2018-06-29T20:45:20.241Z,98964.59
2018-06-29T20:48:23.443Z,98961.55
2018-06-29T20:51:26.683Z,98955.90
2018-06-29T20:54:30.696Z,98960.31
2018-06-29T20:57:33.930Z,98964.87
2018-06-29T21:00:37.274Z,98972.01
2018-06-29T21:03:40.706Z,98978.56
2018-06-29T21:06:44.051Z,98964.36
2018-06-29T21:09:47.751Z,98971.71
2018-06-29T21:12:51.025Z,98973.48
2018-06-29T21:15:54.240Z,98978.05
2018-06-29T21:18:58.700Z,98974.29
2018-06-29T21:22:02.038Z,98974.66
2018-06-29T21:25:05.395Z,98979.21
2018-06-29T21:28:09.540Z,98979.16
2018-06-29T21:31:12.747Z,98982.39
2018-06-29T21:34:28.887Z,98979.29
2018-06-29T21:37:33.068Z,98978.25
2018-06-29T21:40:36.279Z,98979.60
2018-06-29T21:43:40.450Z,98984.45
2018-06-29T21:46:45.514Z,98983.27
2018-06-29T21:49:48.868Z,98979.98
2018-06-29T21:53:04.958Z,98982.41
2018-06-29T21:56:08.351Z,98989.75
2018-06-29T21:59:13.297Z,98986.72
2018-06-29T22:02:18.053Z,98988.69
2018-06-29T22:05:21.557Z,98993.47
2018-06-29T22:08:26.224Z,98989.25
2018-06-29T22:11:32.521Z,98991.72
2018-06-29T22:14:37.365Z,98995.47
2018-06-29T22:17:41.239Z,98986.56
2018-06-29T22:20:45.152Z,98985.44
2018-06-29T22:23:49.513Z,98986.40
2018-06-29T22:26:55.883Z,98991.92
2018-06-29T22:30:04.062Z,98988.48
2018-06-29T22:33:08.821Z,98980.98
2018-06-29T22:36:12.812Z,98986.03
2018-06-29T22:39:16.913Z,98989.88
2018-06-29T22:42:21.006Z,98984.78
2018-06-29T22:45:25.180Z,98982.05
2018-06-29T22:48:29.261Z,98987.83
2018-06-29T22:51:41.603Z,98983.98
2018-06-29T22:54:46.334Z,98975.53
2018-06-29T22:57:50.470Z,98978.08
2018-06-29T23:00:56.410Z,98976.37
2018-06-29T23:04:00.454Z,98974.38
2018-06-29T23:07:03.673Z,98975.83
2018-06-29T23:13:17.298Z,98986.19
2018-06-29T23:16:23.787Z,98988.12
2018-06-29T23:19:48.279Z,98992.31
2018-06-29T23:22:51.842Z,98989.31
2018-06-29T23:25:55.738Z,98993.19
2018-06-29T23:28:59.760Z,98990.16
2018-06-29T23:32:02.785Z,98992.59
2018-06-29T23:35:06.144Z,98992.39
2018-06-29T23:38:09.407Z,98990.56
2018-06-29T23:41:12.532Z,98991.98
2018-06-29T23:44:29.454Z,98990.36
2018-06-29T23:47:32.500Z,98990.46
2018-06-29T23:50:35.856Z,98990.35
2018-06-29T23:53:39.041Z,98986.29
2018-06-29T23:56:43.948Z,98988.91
2018-06-29T23:59:47.455Z,98990.60
